createdAt,value
2022-10-26T05:15:48.378Z,7.07
2022-10-26T05:18:14.839Z,7.82
2022-10-26T05:20:41.334Z,7.40
2022-10-26T05:23:10.472Z,8.40
2022-10-26T05:25:37.721Z,8.40
2022-10-26T05:28:05.687Z,10.10
2022-10-26T05:30:32.261Z,10.45
2022-10-26T05:33:00.086Z,10.10
2022-10-26T05:35:26.957Z,9.80
2022-10-26T05:37:53.500Z,10.30
2022-10-26T05:40:20.295Z,10.65
2022-10-26T05:42:47.115Z,10.82
2022-10-26T05:45:13.999Z,11.55
2022-10-26T05:47:41.486Z,12.07
2022-10-26T05:50:08.477Z,12.60
2022-10-26T05:52:38.585Z,12.32
2022-10-26T05:57:37.332Z,10.80
2022-10-26T06:00:06.819Z,11.05
2022-10-26T06:02:53.982Z,10.80
2022-10-26T06:05:26.311Z,11.25
2022-10-26T06:07:52.943Z,11.98
2022-10-26T06:10:19.734Z,11.35
2022-10-26T06:12:46.488Z,11.85
2022-10-26T06:15:16.596Z,11.48
2022-10-26T06:18:06.362Z,11.00
2022-10-26T06:20:38.879Z,11.77
2022-10-26T06:23:24.589Z,11.88
2022-10-26T06:26:00.164Z,11.32
2022-10-26T06:28:36.628Z,12.10
2022-10-26T06:31:03.318Z,12.10
2022-10-26T06:33:30.676Z,11.20
2022-10-26T06:35:57.548Z,12.23
2022-10-26T06:38:27.335Z,11.68
2022-10-26T06:40:56.425Z,11.55
2022-10-26T06:43:25.268Z,11.95
2022-10-26T06:46:10.122Z,12.77
2022-10-26T06:49:02.957Z,14.48
2022-10-26T06:51:30.798Z,13.30
2022-10-26T06:54:00.803Z,14.77
2022-10-26T06:56:27.459Z,14.48
2022-10-26T06:58:54.557Z,13.15
2022-10-26T07:01:21.268Z,14.18
2022-10-26T07:03:47.791Z,13.23
2022-10-26T07:06:14.487Z,12.27
2022-10-26T07:08:41.072Z,12.57
2022-10-26T07:11:09.272Z,12.60
2022-10-26T07:13:37.832Z,12.02
2022-10-26T07:16:04.646Z,11.85
2022-10-26T07:18:31.193Z,11.02
2022-10-26T07:20:58.751Z,9.90
2022-10-26T07:23:25.386Z,9.70
2022-10-26T07:25:51.936Z,10.48
2022-10-26T07:28:18.399Z,9.23
2022-10-26T07:30:45.009Z,9.43
2022-10-26T07:33:12.645Z,10.07
2022-10-26T07:35:39.516Z,10.00
2022-10-26T07:38:06.265Z,10.43
2022-10-26T07:40:32.849Z,9.20
2022-10-26T07:43:00.242Z,8.98
2022-10-26T07:45:27.689Z,9.55
2022-10-26T07:47:54.372Z,9.00
2022-10-26T07:50:20.865Z,9.75
2022-10-26T07:52:47.659Z,8.82
2022-10-26T07:55:14.428Z,10.18
2022-10-26T07:57:41.034Z,11.52
2022-10-26T08:00:09.089Z,10.20
2022-10-26T08:02:35.828Z,11.63
2022-10-26T08:05:02.395Z,11.25
2022-10-26T08:07:29.091Z,12.23
2022-10-26T08:09:55.620Z,11.30
2022-10-26T08:12:22.118Z,10.40
2022-10-26T08:14:48.606Z,12.10
2022-10-26T08:17:15.159Z,9.90
2022-10-26T08:19:41.787Z,11.80
2022-10-26T08:22:08.424Z,11.10
2022-10-26T08:24:35.034Z,11.13
2022-10-26T08:27:01.514Z,11.48
2022-10-26T08:29:27.978Z,12.02
2022-10-26T08:31:54.413Z,11.52
2022-10-26T08:34:21.052Z,10.27
2022-10-26T08:36:47.555Z,10.82
2022-10-26T08:39:14.174Z,11.43
2022-10-26T08:41:47.754Z,10.90
2022-10-26T08:44:17.249Z,10.75
2022-10-26T08:46:46.837Z,11.45
2022-10-26T08:49:20.730Z,10.57
2022-10-26T08:51:49.449Z,10.70
2022-10-26T08:54:28.157Z,10.25
2022-10-26T08:56:57.419Z,9.80
2022-10-26T08:59:35.808Z,9.38
2022-10-26T09:02:02.796Z,10.15
2022-10-26T09:04:31.662Z,10.40
2022-10-26T09:07:17.026Z,9.77
2022-10-26T09:09:43.516Z,9.70
2022-10-26T09:12:39.530Z,9.23
2022-10-26T09:15:08.775Z,8.73
2022-10-26T09:17:46.928Z,8.60
2022-10-26T09:20:31.975Z,9.25
2022-10-26T09:23:10.752Z,9.55
2022-10-26T09:25:40.955Z,9.48
2022-10-26T09:28:15.811Z,8.50
2022-10-26T09:30:44.590Z,8.52
2022-10-26T09:33:16.371Z,8.73
2022-10-26T09:35:45.867Z,9.00
2022-10-26T09:38:15.879Z,9.40
2022-10-26T09:40:54.584Z,8.48
2022-10-26T09:43:24.585Z,8.10
2022-10-26T09:45:51.972Z,8.10
2022-10-26T09:48:25.460Z,8.30
2022-10-26T09:50:52.525Z,9.23
2022-10-26T09:53:19.071Z,9.77
2022-10-26T09:55:46.959Z,9.15
2022-10-26T09:58:26.301Z,9.68
2022-10-26T10:00:53.776Z,10.32
2022-10-26T10:03:30.925Z,8.83
2022-10-26T10:06:17.564Z,9.48
2022-10-26T10:08:48.952Z,8.27
2022-10-26T10:11:15.470Z,8.90
2022-10-26T10:13:43.150Z,8.13
2022-10-26T10:16:14.251Z,7.43
2022-10-26T10:18:41.820Z,6.97
2022-10-26T10:21:09.056Z,7.05
2022-10-26T10:23:37.084Z,6.50
2022-10-26T10:26:03.594Z,6.05
2022-10-26T10:28:30.559Z,6.40
2022-10-26T10:31:02.067Z,7.22
2022-10-26T10:33:32.939Z,6.95
2022-10-26T10:35:59.600Z,6.65
2022-10-26T10:38:26.091Z,5.90
2022-10-26T10:40:57.920Z,6.35
2022-10-26T10:43:25.421Z,6.60
2022-10-26T10:45:54.751Z,6.85
2022-10-26T10:48:25.820Z,5.80
2022-10-26T10:51:13.089Z,5.72
2022-10-26T10:53:48.361Z,6.20
2022-10-26T10:56:29.879Z,6.50
2022-10-26T10:58:57.159Z,5.57
2022-10-26T11:01:30.830Z,5.65
2022-10-26T11:04:03.435Z,5.93
2022-10-26T11:06:31.158Z,6.00
2022-10-26T11:09:03.239Z,5.63
2022-10-26T11:11:34.971Z,5.85
2022-10-26T11:14:01.395Z,5.88
2022-10-26T11:16:33.356Z,5.35
2022-10-26T11:19:20.936Z,5.63
2022-10-26T11:21:49.068Z,5.47
2022-10-26T11:24:15.484Z,5.30
2022-10-26T11:26:46.225Z,4.30
2022-10-26T11:29:22.214Z,4.85
2022-10-26T11:31:58.583Z,5.25
2022-10-26T11:34:28.743Z,6.07
2022-10-26T11:37:16.983Z,5.10
2022-10-26T11:39:48.151Z,5.30
2022-10-26T11:42:14.600Z,5.22
2022-10-26T11:44:53.309Z,5.05
2022-10-26T11:47:22.635Z,5.10
2022-10-26T11:49:52.096Z,4.82
2022-10-26T11:52:24.046Z,4.97
2022-10-26T11:54:54.539Z,6.63
2022-10-26T11:57:22.655Z,6.25
2022-10-26T11:59:54.363Z,6.45
2022-10-26T12:02:22.503Z,6.85
2022-10-26T12:05:06.040Z,6.30
2022-10-26T12:07:33.756Z,6.13
2022-10-26T12:10:00.976Z,6.65
2022-10-26T12:12:42.588Z,5.93
2022-10-26T12:15:18.191Z,5.85
2022-10-26T12:17:53.555Z,6.32
2022-10-26T12:20:38.661Z,7.15
2022-10-26T12:23:06.028Z,6.63
2022-10-26T12:25:32.539Z,6.43
2022-10-26T12:28:00.392Z,6.43
2022-10-26T12:30:34.185Z,7.03
2022-10-26T12:33:01.686Z,6.40
2022-10-26T12:35:31.347Z,6.97
2022-10-26T12:37:58.282Z,6.90
2022-10-26T12:44:36.473Z,6.32
2022-10-26T12:47:03.470Z,5.75
2022-10-26T12:49:48.812Z,5.75
2022-10-26T12:52:19.748Z,5.47
2022-10-26T12:54:54.668Z,6.05
2022-10-26T12:57:28.839Z,6.43
2022-10-26T13:00:05.892Z,6.07
2022-10-26T13:02:38.574Z,5.53
2022-10-26T13:05:23.330Z,5.35
2022-10-26T13:07:50.200Z,4.97
2022-10-26T13:10:24.474Z,5.00
2022-10-26T13:12:55.219Z,4.45
2022-10-26T13:15:41.142Z,5.55
2022-10-26T13:18:14.323Z,5.15
2022-10-26T13:20:59.267Z,4.95
2022-10-26T13:23:27.208Z,5.05
2022-10-26T13:26:07.697Z,4.95
2022-10-26T13:28:43.638Z,4.38
2022-10-26T13:31:30.880Z,4.93
2022-10-26T13:34:02.202Z,4.32
2022-10-26T13:36:42.875Z,4.72
2022-10-26T13:39:12.353Z,4.70
2022-10-26T13:41:40.774Z,4.70
2022-10-26T13:44:13.968Z,5.30
2022-10-26T13:46:43.495Z,11.52
2022-10-26T13:49:21.997Z,9.75
2022-10-26T13:51:50.320Z,6.70
2022-10-26T13:56:45.853Z,9.35
2022-10-26T13:59:15.542Z,8.23
2022-10-26T14:01:42.269Z,7.32
2022-10-26T14:04:25.318Z,6.20
2022-10-26T14:06:52.681Z,6.25
2022-10-26T14:09:19.975Z,5.63
2022-10-26T14:11:53.660Z,7.25
2022-10-26T14:14:21.767Z,5.85
2022-10-26T14:16:49.464Z,5.50
2022-10-26T14:19:25.276Z,5.40
2022-10-26T14:21:52.274Z,5.22
2022-10-26T14:24:45.700Z,5.97
2022-10-26T14:27:17.161Z,7.90
2022-10-26T14:29:49.868Z,6.95
2022-10-26T14:32:21.500Z,8.95
2022-10-26T14:34:47.962Z,5.53
2022-10-26T14:37:22.169Z,7.43
2022-10-26T14:39:48.918Z,5.90
2022-10-26T14:42:15.351Z,7.45
2022-10-26T14:44:41.890Z,4.88
2022-10-26T14:47:23.242Z,4.88
2022-10-26T14:49:49.751Z,4.63
2022-10-26T14:52:32.152Z,6.32
2022-10-26T14:55:13.193Z,6.07
2022-10-26T14:57:40.596Z,5.13
2022-10-26T15:00:13.203Z,5.40
2022-10-26T15:02:40.026Z,5.38
2022-10-26T15:05:26.087Z,5.05
2022-10-26T15:07:53.172Z,5.05
2022-10-26T15:10:38.309Z,5.60
2022-10-26T15:13:08.585Z,6.13
2022-10-26T15:15:38.897Z,6.30
2022-10-26T15:18:14.015Z,5.80
2022-10-26T15:20:46.762Z,7.55
2022-10-26T15:23:14.231Z,6.75
2022-10-26T15:25:48.779Z,7.05
2022-10-26T15:28:44.477Z,12.18
2022-10-26T15:31:10.878Z,9.02
2022-10-26T15:33:41.791Z,5.72
2022-10-26T15:36:08.235Z,6.80
2022-10-26T15:38:35.065Z,7.78
2022-10-26T15:41:01.515Z,6.55
2022-10-26T15:43:27.981Z,6.68
2022-10-26T15:45:56.352Z,8.63
2022-10-26T15:50:49.273Z,5.53
2022-10-26T15:53:18.604Z,6.53
2022-10-26T15:55:45.248Z,6.65
2022-10-26T15:58:11.697Z,9.23
2022-10-26T16:00:38.208Z,8.55
2022-10-26T16:03:04.693Z,7.65
2022-10-26T16:07:58.851Z,7.90
2022-10-26T16:10:25.547Z,7.05
2022-10-26T16:12:52.246Z,6.45
2022-10-26T16:15:23.055Z,5.50
2022-10-26T16:17:50.280Z,6.53
2022-10-26T16:20:24.436Z,7.97
2022-10-26T16:22:52.047Z,9.77
2022-10-26T16:25:20.312Z,8.23
2022-10-26T16:27:47.261Z,6.50
2022-10-26T16:30:14.313Z,7.53
2022-10-26T16:32:40.877Z,7.60
2022-10-26T16:35:07.500Z,8.18
2022-10-26T16:37:34.027Z,13.50
2022-10-26T16:40:00.481Z,16.40
2022-10-26T16:42:28.400Z,9.90
2022-10-26T16:44:57.579Z,8.35
2022-10-26T16:47:27.063Z,7.93
2022-10-26T16:49:53.640Z,7.53
2022-10-26T16:52:21.316Z,7.10
2022-10-26T16:54:47.793Z,6.90
2022-10-26T16:57:14.307Z,6.95
2022-10-26T16:59:40.817Z,6.32
2022-10-26T17:02:07.357Z,7.20
2022-10-26T17:04:33.912Z,6.38
2022-10-26T17:07:00.397Z,6.00
2022-10-26T17:09:27.984Z,6.05
2022-10-26T17:11:58.330Z,5.90
2022-10-26T17:14:28.123Z,9.75
2022-10-26T17:16:54.562Z,9.20
2022-10-26T17:19:21.052Z,9.10
2022-10-26T17:21:47.524Z,8.15
2022-10-26T17:24:14.262Z,6.15
2022-10-26T17:26:41.660Z,7.10
2022-10-26T17:31:37.085Z,9.30
2022-10-26T17:34:03.560Z,8.20
2022-10-26T17:36:31.616Z,6.32
2022-10-26T17:38:58.149Z,6.32
2022-10-26T17:41:24.876Z,8.20
2022-10-26T17:43:51.570Z,6.57
2022-10-26T17:46:25.534Z,6.22
2022-10-26T17:48:58.502Z,6.18
2022-10-26T17:51:25.341Z,6.40
2022-10-26T17:53:52.136Z,6.45
2022-10-26T17:56:23.191Z,8.75
2022-10-26T17:58:56.592Z,6.53
2022-10-26T18:01:23.354Z,6.50
2022-10-26T18:03:50.047Z,6.40
2022-10-26T18:06:17.243Z,7.20
2022-10-26T18:08:44.200Z,7.45
2022-10-26T18:11:15.378Z,7.38
2022-10-26T18:13:41.899Z,5.97
2022-10-26T18:16:27.119Z,6.47
2022-10-26T18:19:11.689Z,7.07
2022-10-26T18:21:38.177Z,7.28
2022-10-26T18:24:05.348Z,6.50
2022-10-26T18:26:32.124Z,6.72
2022-10-26T18:28:59.601Z,7.07
2022-10-26T18:31:27.093Z,7.78
2022-10-26T18:34:01.457Z,6.87
2022-10-26T18:36:28.506Z,6.18
2022-10-26T18:38:55.315Z,6.40
2022-10-26T18:41:22.535Z,6.25
2022-10-26T18:43:50.571Z,11.02
2022-10-26T18:46:20.796Z,7.10
2022-10-26T18:48:48.312Z,6.70
2022-10-26T18:51:16.183Z,6.90
2022-10-26T18:53:43.481Z,7.10
2022-10-26T18:56:11.160Z,8.27
2022-10-26T18:58:39.016Z,6.75
2022-10-26T19:01:07.089Z,6.28
2022-10-26T19:03:33.919Z,6.00
2022-10-26T19:06:09.824Z,6.60
2022-10-26T19:08:36.328Z,5.38
2022-10-26T19:11:03.668Z,5.88
2022-10-26T19:13:30.475Z,6.53
2022-10-26T19:16:07.239Z,6.28
2022-10-26T19:18:39.613Z,5.72
2022-10-26T19:21:16.760Z,5.93
2022-10-26T19:23:45.241Z,5.85
2022-10-26T19:26:12.997Z,5.03
2022-10-26T19:28:39.679Z,5.85
2022-10-26T19:31:08.101Z,5.70
2022-10-26T19:33:34.984Z,6.72
2022-10-26T19:36:02.282Z,6.50
2022-10-26T19:38:28.745Z,5.70
2022-10-26T19:40:59.701Z,5.88
2022-10-26T19:43:27.356Z,5.95
2022-10-26T19:45:53.896Z,5.45
2022-10-26T19:48:20.413Z,5.70
2022-10-26T19:50:47.550Z,5.85
2022-10-26T19:53:17.313Z,5.43
2022-10-26T19:55:44.481Z,5.13
2022-10-26T19:58:11.789Z,6.55
2022-10-26T20:00:39.094Z,6.72
2022-10-26T20:03:06.505Z,6.20
2022-10-26T20:05:33.321Z,6.07
2022-10-26T20:08:00.004Z,5.68
2022-10-26T20:10:26.642Z,5.40
2022-10-26T20:12:53.315Z,5.72
2022-10-26T20:15:19.905Z,6.57
2022-10-26T20:17:46.437Z,7.60
2022-10-26T20:20:12.922Z,7.15
2022-10-26T20:22:39.399Z,6.95
2022-10-26T20:25:06.167Z,5.60
2022-10-26T20:27:32.749Z,5.90
2022-10-26T20:29:59.220Z,6.13
2022-10-26T20:32:25.843Z,5.78
2022-10-26T20:40:35.609Z,5.50
2022-10-26T20:43:02.214Z,5.50
2022-10-26T20:45:29.791Z,6.03
2022-10-26T20:47:56.913Z,6.68
2022-10-26T20:50:24.068Z,6.30
2022-10-26T20:53:09.155Z,6.82
2022-10-26T20:55:41.026Z,6.65
2022-10-26T20:58:07.487Z,7.10
2022-10-26T21:00:42.621Z,6.65
2022-10-26T21:03:12.813Z,7.25
2022-10-26T21:05:44.271Z,6.53
2022-10-26T21:08:10.703Z,7.18
2022-10-26T21:10:37.168Z,7.05
2022-10-26T21:13:03.699Z,7.18
2022-10-26T21:15:30.169Z,6.72
2022-10-26T21:17:56.644Z,6.75
2022-10-26T21:20:23.161Z,6.53
2022-10-26T21:22:51.448Z,7.13
2022-10-26T21:27:44.327Z,6.50
2022-10-26T21:30:11.410Z,6.50
2022-10-26T21:32:37.860Z,6.63
2022-10-26T21:35:04.453Z,6.72
2022-10-26T21:37:30.908Z,6.70
2022-10-26T21:39:57.361Z,7.40
2022-10-26T21:42:23.824Z,7.35
2022-10-26T21:44:50.365Z,7.55
2022-10-26T21:47:16.847Z,6.97
2022-10-26T21:49:43.529Z,6.85
2022-10-26T21:52:10.203Z,6.72
2022-10-26T21:54:36.712Z,6.15
2022-10-26T21:57:03.240Z,6.78
2022-10-26T21:59:29.722Z,6.40
2022-10-26T22:01:56.277Z,5.85
2022-10-26T22:04:22.853Z,6.22
2022-10-26T22:06:49.332Z,6.25
2022-10-26T22:09:15.805Z,6.75
2022-10-26T22:11:42.266Z,6.47
2022-10-26T22:14:08.760Z,6.55
2022-10-26T22:16:35.230Z,8.35
2022-10-26T22:19:06.251Z,7.38
2022-10-26T22:21:34.955Z,7.72
2022-10-26T22:24:01.472Z,6.80
2022-10-26T22:26:28.229Z,6.70
2022-10-26T22:28:55.851Z,6.95
2022-10-26T22:31:26.922Z,7.43
2022-10-26T22:33:53.375Z,6.55
2022-10-26T22:36:20.182Z,6.90
2022-10-26T22:38:46.775Z,6.93
2022-10-26T22:41:13.237Z,6.28
2022-10-26T22:43:39.752Z,6.00
2022-10-26T22:46:07.571Z,6.90
2022-10-26T22:48:34.489Z,6.80
2022-10-26T22:51:06.864Z,6.78
2022-10-26T22:53:33.371Z,6.65
2022-10-26T22:56:00.465Z,6.63
2022-10-26T22:58:26.975Z,6.65
2022-10-26T23:00:53.526Z,6.82
2022-10-26T23:03:20.038Z,8.18
2022-10-26T23:05:49.307Z,6.38
2022-10-26T23:08:15.773Z,6.82
2022-10-26T23:10:42.352Z,7.95
2022-10-26T23:13:08.809Z,7.25
2022-10-26T23:15:35.263Z,7.68
2022-10-26T23:18:01.696Z,7.55
2022-10-26T23:20:28.191Z,8.15
2022-10-26T23:22:54.667Z,7.55
2022-10-26T23:25:21.132Z,7.63
2022-10-26T23:27:47.577Z,7.70
2022-10-26T23:30:14.129Z,7.82
2022-10-26T23:32:40.593Z,7.60
2022-10-26T23:35:07.208Z,7.85
2022-10-26T23:37:33.675Z,8.27
2022-10-26T23:40:00.171Z,8.50
2022-10-26T23:42:26.662Z,8.13
2022-10-26T23:44:53.113Z,8.25
2022-10-26T23:47:19.893Z,8.32
2022-10-26T23:49:49.128Z,8.68
2022-10-26T23:52:15.925Z,8.80
2022-10-26T23:54:42.389Z,8.73
2022-10-26T23:57:08.895Z,8.55
2022-10-26T23:59:35.379Z,8.13
